Main page
METAR-TAF:

METAR-TAF

Airports :

Las Vegas Municipal Airport

Las Vegas, New Mexico, United States

latitude: 35-39-15N, longitude: 105-08-33W, elevation: 6875 ft

Current weather observation

The report was made 1 hour and 4 minutes ago, at 01:53 UTC
Wind 3 mph from the North/Northwest
Temperature 37°F
Humidity 48%
Pressure 30.32 in. Hg
Visibility: 10 miles
Clear sky

METAR: KLVS 150153Z AUTO 33003KT 10SM CLR 03/M07 A3032 RMK AO2 SLP269 T00331067

Time: 19:57 (02:57 UTC)

Forecast

The report was made 3 hours and 37 minutes ago, at 23:20 UTC
Forecast valid from 15 at 00 UTC to 15 at 24 UTC
Wind 7 mph from variable directions
Visibility: 6 miles
Few clouds at a height of 25000 ft

TAF: KLVS 142320Z 1500/1524 VRB06KT P6SM FEW250

Weather observations and forecasts of more than 4000 airports (METAR and TAF reports).

The available stations are represented by yellow and red dots on the map.

Hover mouse over dot to see the name of the station.

Then click to see weather observations and forecasts.

To change the map : click on the green buttons with a black cross to zoom in, on the green button with a dash to zoom out, or on the green arrows for adjacent maps.


METAR-TAF: